sensor_id;sensor_type;location;lat;lon;timestamp;P1;durP1;ratioP1;P2;durP2;ratioP2
36355;SDS011;22384;54.302;18.596;2024-02-21T00:01:47;15.52;;;3.90;;
36355;SDS011;22384;54.302;18.596;2024-02-21T00:04:13;15.60;;;3.17;;
36355;SDS011;22384;54.302;18.596;2024-02-21T00:06:41;16.88;;;3.15;;
36355;SDS011;22384;54.302;18.596;2024-02-21T00:09:07;17.13;;;3.38;;
36355;SDS011;22384;54.302;18.596;2024-02-21T00:11:34;20.30;;;5.05;;
36355;SDS011;22384;54.302;18.596;2024-02-21T00:14:00;205.07;;;54.90;;
36355;SDS011;22384;54.302;18.596;2024-02-21T00:16:26;378.25;;;115.05;;
36355;SDS011;22384;54.302;18.596;2024-02-21T00:18:52;191.32;;;58.20;;
36355;SDS011;22384;54.302;18.596;2024-02-21T00:21:18;48.70;;;16.55;;
36355;SDS011;22384;54.302;18.596;2024-02-21T00:23:45;114.05;;;33.40;;
36355;SDS011;22384;54.302;18.596;2024-02-21T00:26:14;98.88;;;28.65;;
36355;SDS011;22384;54.302;18.596;2024-02-21T00:28:40;357.83;;;106.97;;
36355;SDS011;22384;54.302;18.596;2024-02-21T00:31:06;225.75;;;62.67;;
36355;SDS011;22384;54.302;18.596;2024-02-21T00:33:32;373.92;;;95.53;;
36355;SDS011;22384;54.302;18.596;2024-02-21T00:35:58;181.80;;;49.78;;
36355;SDS011;22384;54.302;18.596;2024-02-21T00:38:24;277.05;;;73.85;;
36355;SDS011;22384;54.302;18.596;2024-02-21T00:40:50;55.35;;;15.82;;
36355;SDS011;22384;54.302;18.596;2024-02-21T00:43:16;95.95;;;21.00;;
36355;SDS011;22384;54.302;18.596;2024-02-21T00:45:42;19.85;;;4.20;;
36355;SDS011;22384;54.302;18.596;2024-02-21T00:48:08;158.52;;;30.90;;
36355;SDS011;22384;54.302;18.596;2024-02-21T00:50:34;120.07;;;23.33;;
36355;SDS011;22384;54.302;18.596;2024-02-21T00:53:02;68.65;;;14.18;;
36355;SDS011;22384;54.302;18.596;2024-02-21T00:55:28;104.55;;;21.85;;
36355;SDS011;22384;54.302;18.596;2024-02-21T00:57:54;393.98;;;80.40;;
36355;SDS011;22384;54.302;18.596;2024-02-21T01:00:20;155.65;;;34.78;;
36355;SDS011;22384;54.302;18.596;2024-02-21T01:02:47;315.17;;;60.30;;
36355;SDS011;22384;54.302;18.596;2024-02-21T01:05:13;290.90;;;59.00;;
36355;SDS011;22384;54.302;18.596;2024-02-21T01:07:39;388.85;;;78.35;;
36355;SDS011;22384;54.302;18.596;2024-02-21T01:10:06;173.40;;;37.70;;
36355;SDS011;22384;54.302;18.596;2024-02-21T01:12:32;54.63;;;10.73;;
36355;SDS011;22384;54.302;18.596;2024-02-21T01:14:58;22.38;;;5.57;;
36355;SDS011;22384;54.302;18.596;2024-02-21T01:17:24;64.88;;;12.40;;
36355;SDS011;22384;54.302;18.596;2024-02-21T01:19:50;342.02;;;65.47;;
36355;SDS011;22384;54.302;18.596;2024-02-21T01:22:16;398.75;;;80.05;;
36355;SDS011;22384;54.302;18.596;2024-02-21T01:24:43;518.58;;;106.20;;
36355;SDS011;22384;54.302;18.596;2024-02-21T01:27:09;498.15;;;119.15;;
36355;SDS011;22384;54.302;18.596;2024-02-21T01:29:35;405.00;;;124.35;;
36355;SDS011;22384;54.302;18.596;2024-02-21T01:32:01;593.13;;;215.00;;
36355;SDS011;22384;54.302;18.596;2024-02-21T01:34:27;471.92;;;147.98;;
36355;SDS011;22384;54.302;18.596;2024-02-21T01:36:53;542.60;;;149.50;;
36355;SDS011;22384;54.302;18.596;2024-02-21T01:39:19;272.45;;;74.00;;
36355;SDS011;22384;54.302;18.596;2024-02-21T01:41:45;344.25;;;69.80;;
36355;SDS011;22384;54.302;18.596;2024-02-21T01:44:11;585.90;;;173.45;;
36355;SDS011;22384;54.302;18.596;2024-02-21T01:46:37;687.08;;;210.30;;
36355;SDS011;22384;54.302;18.596;2024-02-21T01:49:03;228.77;;;71.80;;
36355;SDS011;22384;54.302;18.596;2024-02-21T01:51:30;235.30;;;55.45;;
36355;SDS011;22384;54.302;18.596;2024-02-21T01:53:56;268.48;;;56.70;;
36355;SDS011;22384;54.302;18.596;2024-02-21T01:56:23;151.43;;;33.72;;
36355;SDS011;22384;54.302;18.596;2024-02-21T01:58:49;319.17;;;69.88;;
36355;SDS011;22384;54.302;18.596;2024-02-21T02:01:16;301.52;;;61.38;;
36355;SDS011;22384;54.302;18.596;2024-02-21T02:03:44;328.35;;;65.40;;
36355;SDS011;22384;54.302;18.596;2024-02-21T02:06:11;105.38;;;23.70;;
36355;SDS011;22384;54.302;18.596;2024-02-21T02:08:38;51.65;;;13.18;;
36355;SDS011;22384;54.302;18.596;2024-02-21T02:11:04;47.42;;;11.90;;
36355;SDS011;22384;54.302;18.596;2024-02-21T02:13:31;30.67;;;8.27;;
36355;SDS011;22384;54.302;18.596;2024-02-21T02:15:58;21.60;;;6.07;;
36355;SDS011;22384;54.302;18.596;2024-02-21T02:18:24;27.70;;;6.20;;
36355;SDS011;22384;54.302;18.596;2024-02-21T02:20:50;18.48;;;4.22;;
36355;SDS011;22384;54.302;18.596;2024-02-21T02:23:27;20.90;;;4.65;;
36355;SDS011;22384;54.302;18.596;2024-02-21T02:25:53;25.92;;;4.28;;
36355;SDS011;22384;54.302;18.596;2024-02-21T02:28:20;19.65;;;3.38;;
36355;SDS011;22384;54.302;18.596;2024-02-21T02:30:46;17.63;;;3.35;;
36355;SDS011;22384;54.302;18.596;2024-02-21T02:33:12;20.02;;;4.75;;
36355;SDS011;22384;54.302;18.596;2024-02-21T02:35:38;43.55;;;8.27;;
36355;SDS011;22384;54.302;18.596;2024-02-21T02:38:05;74.25;;;17.05;;
36355;SDS011;22384;54.302;18.596;2024-02-21T02:40:34;270.75;;;65.82;;
36355;SDS011;22384;54.302;18.596;2024-02-21T02:43:00;419.77;;;107.95;;
36355;SDS011;22384;54.302;18.596;2024-02-21T02:45:26;298.63;;;79.90;;
36355;SDS011;22384;54.302;18.596;2024-02-21T02:47:53;169.00;;;41.85;;
36355;SDS011;22384;54.302;18.596;2024-02-21T02:50:19;152.52;;;35.55;;
36355;SDS011;22384;54.302;18.596;2024-02-21T02:52:45;275.58;;;67.03;;
36355;SDS011;22384;54.302;18.596;2024-02-21T02:55:11;204.05;;;54.65;;
36355;SDS011;22384;54.302;18.596;2024-02-21T02:57:38;314.15;;;90.72;;
36355;SDS011;22384;54.302;18.596;2024-02-21T03:00:04;249.55;;;67.78;;
36355;SDS011;22384;54.302;18.596;2024-02-21T03:02:32;375.38;;;96.00;;
36355;SDS011;22384;54.302;18.596;2024-02-21T03:04:58;417.60;;;100.47;;
36355;SDS011;22384;54.302;18.596;2024-02-21T03:07:25;236.88;;;54.65;;
36355;SDS011;22384;54.302;18.596;2024-02-21T03:09:51;373.50;;;96.32;;
36355;SDS011;22384;54.302;18.596;2024-02-21T03:12:18;268.83;;;78.22;;
36355;SDS011;22384;54.302;18.596;2024-02-21T03:14:49;86.60;;;25.58;;
36355;SDS011;22384;54.302;18.596;2024-02-21T03:17:16;80.93;;;18.77;;
36355;SDS011;22384;54.302;18.596;2024-02-21T03:19:42;169.15;;;41.40;;
36355;SDS011;22384;54.302;18.596;2024-02-21T03:22:08;117.90;;;33.45;;
36355;SDS011;22384;54.302;18.596;2024-02-21T03:24:34;152.00;;;37.78;;
36355;SDS011;22384;54.302;18.596;2024-02-21T03:27:00;183.48;;;43.60;;
36355;SDS011;22384;54.302;18.596;2024-02-21T03:29:26;205.13;;;46.35;;
36355;SDS011;22384;54.302;18.596;2024-02-21T03:31:52;246.20;;;55.63;;
36355;SDS011;22384;54.302;18.596;2024-02-21T03:34:18;245.35;;;51.72;;
36355;SDS011;22384;54.302;18.596;2024-02-21T03:36:44;253.90;;;56.60;;
36355;SDS011;22384;54.302;18.596;2024-02-21T03:39:10;235.30;;;51.95;;
36355;SDS011;22384;54.302;18.596;2024-02-21T03:41:36;223.35;;;48.83;;
36355;SDS011;22384;54.302;18.596;2024-02-21T03:44:03;182.40;;;40.20;;
36355;SDS011;22384;54.302;18.596;2024-02-21T03:46:30;129.90;;;28.90;;
36355;SDS011;22384;54.302;18.596;2024-02-21T03:48:56;174.82;;;36.85;;
36355;SDS011;22384;54.302;18.596;2024-02-21T03:51:23;216.57;;;48.25;;
36355;SDS011;22384;54.302;18.596;2024-02-21T03:53:49;194.05;;;40.83;;
36355;SDS011;22384;54.302;18.596;2024-02-21T03:56:15;176.68;;;33.15;;
36355;SDS011;22384;54.302;18.596;2024-02-21T03:58:41;176.32;;;37.83;;
36355;SDS011;22384;54.302;18.596;2024-02-21T04:01:07;85.70;;;14.40;;
36355;SDS011;22384;54.302;18.596;2024-02-21T04:03:33;198.57;;;36.08;;
36355;SDS011;22384;54.302;18.596;2024-02-21T04:05:59;167.65;;;30.48;;
36355;SDS011;22384;54.302;18.596;2024-02-21T04:08:25;143.88;;;28.08;;
36355;SDS011;22384;54.302;18.596;2024-02-21T04:10:51;203.13;;;36.40;;
36355;SDS011;22384;54.302;18.596;2024-02-21T04:13:17;168.95;;;33.58;;
36355;SDS011;22384;54.302;18.596;2024-02-21T04:15:43;110.10;;;22.88;;
36355;SDS011;22384;54.302;18.596;2024-02-21T04:18:09;69.50;;;14.45;;
36355;SDS011;22384;54.302;18.596;2024-02-21T04:20:36;140.15;;;25.15;;
36355;SDS011;22384;54.302;18.596;2024-02-21T04:23:02;147.32;;;29.10;;
36355;SDS011;22384;54.302;18.596;2024-02-21T04:25:28;146.93;;;29.20;;
36355;SDS011;22384;54.302;18.596;2024-02-21T04:27:54;165.88;;;30.38;;
36355;SDS011;22384;54.302;18.596;2024-02-21T04:30:20;139.82;;;28.70;;
36355;SDS011;22384;54.302;18.596;2024-02-21T04:32:46;161.57;;;29.33;;
36355;SDS011;22384;54.302;18.596;2024-02-21T04:35:12;238.43;;;46.97;;
36355;SDS011;22384;54.302;18.596;2024-02-21T04:37:38;212.48;;;43.45;;
36355;SDS011;22384;54.302;18.596;2024-02-21T04:40:04;197.02;;;40.03;;
36355;SDS011;22384;54.302;18.596;2024-02-21T04:42:31;159.65;;;31.85;;
36355;SDS011;22384;54.302;18.596;2024-02-21T04:44:57;183.43;;;31.98;;
36355;SDS011;22384;54.302;18.596;2024-02-21T04:47:23;205.77;;;41.55;;
36355;SDS011;22384;54.302;18.596;2024-02-21T04:49:50;155.90;;;32.33;;
36355;SDS011;22384;54.302;18.596;2024-02-21T04:52:16;103.35;;;21.08;;
36355;SDS011;22384;54.302;18.596;2024-02-21T04:54:42;122.18;;;26.60;;
36355;SDS011;22384;54.302;18.596;2024-02-21T04:57:08;153.45;;;29.73;;
36355;SDS011;22384;54.302;18.596;2024-02-21T04:59:35;152.15;;;35.53;;
36355;SDS011;22384;54.302;18.596;2024-02-21T05:02:01;228.05;;;55.67;;
36355;SDS011;22384;54.302;18.596;2024-02-21T05:04:27;209.82;;;50.15;;
36355;SDS011;22384;54.302;18.596;2024-02-21T05:06:53;163.85;;;39.92;;
36355;SDS011;22384;54.302;18.596;2024-02-21T05:09:19;163.32;;;37.25;;
36355;SDS011;22384;54.302;18.596;2024-02-21T05:11:46;138.57;;;35.58;;
36355;SDS011;22384;54.302;18.596;2024-02-21T05:14:12;68.80;;;18.25;;
36355;SDS011;22384;54.302;18.596;2024-02-21T05:16:38;98.90;;;23.92;;
36355;SDS011;22384;54.302;18.596;2024-02-21T05:19:05;137.95;;;33.25;;
36355;SDS011;22384;54.302;18.596;2024-02-21T05:21:31;130.10;;;32.17;;
36355;SDS011;22384;54.302;18.596;2024-02-21T05:23:57;125.70;;;32.83;;
36355;SDS011;22384;54.302;18.596;2024-02-21T05:26:26;70.07;;;19.65;;
36355;SDS011;22384;54.302;18.596;2024-02-21T05:28:53;70.65;;;18.77;;
36355;SDS011;22384;54.302;18.596;2024-02-21T05:31:19;61.15;;;18.17;;
36355;SDS011;22384;54.302;18.596;2024-02-21T05:33:45;110.18;;;29.17;;
36355;SDS011;22384;54.302;18.596;2024-02-21T05:36:12;141.43;;;36.83;;
36355;SDS011;22384;54.302;18.596;2024-02-21T05:38:38;79.65;;;22.90;;
36355;SDS011;22384;54.302;18.596;2024-02-21T05:41:04;52.15;;;16.70;;
36355;SDS011;22384;54.302;18.596;2024-02-21T05:43:30;45.13;;;14.65;;
36355;SDS011;22384;54.302;18.596;2024-02-21T05:45:57;66.72;;;20.77;;
36355;SDS011;22384;54.302;18.596;2024-02-21T05:48:23;66.72;;;20.05;;
36355;SDS011;22384;54.302;18.596;2024-02-21T05:50:49;139.70;;;37.15;;
36355;SDS011;22384;54.302;18.596;2024-02-21T05:53:15;77.82;;;22.30;;
36355;SDS011;22384;54.302;18.596;2024-02-21T05:55:41;68.28;;;20.60;;
36355;SDS011;22384;54.302;18.596;2024-02-21T05:58:07;50.53;;;18.45;;
36355;SDS011;22384;54.302;18.596;2024-02-21T06:00:38;48.83;;;15.82;;
36355;SDS011;22384;54.302;18.596;2024-02-21T06:03:04;63.10;;;19.65;;
36355;SDS011;22384;54.302;18.596;2024-02-21T06:05:36;58.10;;;17.15;;
36355;SDS011;22384;54.302;18.596;2024-02-21T06:08:02;77.72;;;23.40;;
36355;SDS011;22384;54.302;18.596;2024-02-21T06:10:28;74.70;;;20.30;;
36355;SDS011;22384;54.302;18.596;2024-02-21T06:12:54;23.02;;;8.35;;
36355;SDS011;22384;54.302;18.596;2024-02-21T06:15:20;19.90;;;7.05;;
36355;SDS011;22384;54.302;18.596;2024-02-21T06:17:46;18.63;;;6.93;;
36355;SDS011;22384;54.302;18.596;2024-02-21T06:20:12;15.57;;;6.60;;
36355;SDS011;22384;54.302;18.596;2024-02-21T06:41:45;22.13;;;7.47;;
36355;SDS011;22384;54.302;18.596;2024-02-21T06:44:11;38.72;;;12.13;;
36355;SDS011;22384;54.302;18.596;2024-02-21T06:46:37;53.15;;;17.52;;
36355;SDS011;22384;54.302;18.596;2024-02-21T06:49:04;43.22;;;16.75;;
36355;SDS011;22384;54.302;18.596;2024-02-21T06:51:30;36.55;;;11.38;;
36355;SDS011;22384;54.302;18.596;2024-02-21T06:53:56;35.75;;;10.68;;
36355;SDS011;22384;54.302;18.596;2024-02-21T06:56:23;30.77;;;9.23;;
36355;SDS011;22384;54.302;18.596;2024-02-21T06:58:56;23.80;;;7.65;;
36355;SDS011;22384;54.302;18.596;2024-02-21T07:01:23;28.02;;;8.52;;
36355;SDS011;22384;54.302;18.596;2024-02-21T07:03:49;35.85;;;9.57;;
36355;SDS011;22384;54.302;18.596;2024-02-21T07:06:15;34.58;;;10.38;;
36355;SDS011;22384;54.302;18.596;2024-02-21T07:08:41;39.38;;;11.70;;
36355;SDS011;22384;54.302;18.596;2024-02-21T07:11:07;40.83;;;11.60;;
36355;SDS011;22384;54.302;18.596;2024-02-21T07:13:33;26.38;;;8.20;;
36355;SDS011;22384;54.302;18.596;2024-02-21T07:16:00;34.08;;;10.07;;
36355;SDS011;22384;54.302;18.596;2024-02-21T07:18:26;28.83;;;8.98;;
36355;SDS011;22384;54.302;18.596;2024-02-21T07:20:52;28.35;;;8.48;;
36355;SDS011;22384;54.302;18.596;2024-02-21T07:23:18;37.97;;;9.80;;
36355;SDS011;22384;54.302;18.596;2024-02-21T07:25:44;36.63;;;12.45;;
36355;SDS011;22384;54.302;18.596;2024-02-21T07:28:11;33.75;;;10.27;;
36355;SDS011;22384;54.302;18.596;2024-02-21T07:30:38;33.38;;;13.05;;
36355;SDS011;22384;54.302;18.596;2024-02-21T07:33:05;32.38;;;10.55;;
36355;SDS011;22384;54.302;18.596;2024-02-21T07:35:32;29.08;;;9.82;;
36355;SDS011;22384;54.302;18.596;2024-02-21T07:37:58;31.52;;;9.98;;
36355;SDS011;22384;54.302;18.596;2024-02-21T07:40:24;29.23;;;10.90;;
36355;SDS011;22384;54.302;18.596;2024-02-21T07:42:50;34.33;;;11.10;;
36355;SDS011;22384;54.302;18.596;2024-02-21T07:45:16;35.88;;;12.00;;
36355;SDS011;22384;54.302;18.596;2024-02-21T07:47:43;38.08;;;12.88;;
36355;SDS011;22384;54.302;18.596;2024-02-21T07:50:09;29.52;;;10.98;;
36355;SDS011;22384;54.302;18.596;2024-02-21T07:52:35;34.67;;;10.43;;
36355;SDS011;22384;54.302;18.596;2024-02-21T07:55:01;38.90;;;16.77;;
36355;SDS011;22384;54.302;18.596;2024-02-21T07:57:28;36.38;;;12.55;;
36355;SDS011;22384;54.302;18.596;2024-02-21T07:59:54;40.03;;;13.18;;
36355;SDS011;22384;54.302;18.596;2024-02-21T08:02:20;33.45;;;11.45;;
36355;SDS011;22384;54.302;18.596;2024-02-21T08:04:46;30.13;;;11.15;;
36355;SDS011;22384;54.302;18.596;2024-02-21T08:07:12;39.13;;;13.15;;
36355;SDS011;22384;54.302;18.596;2024-02-21T08:09:39;38.72;;;12.25;;
36355;SDS011;22384;54.302;18.596;2024-02-21T08:12:05;41.80;;;13.35;;
36355;SDS011;22384;54.302;18.596;2024-02-21T08:14:31;46.40;;;15.07;;
36355;SDS011;22384;54.302;18.596;2024-02-21T08:16:57;37.53;;;12.75;;
36355;SDS011;22384;54.302;18.596;2024-02-21T08:19:24;33.05;;;11.55;;
36355;SDS011;22384;54.302;18.596;2024-02-21T08:21:50;38.33;;;12.25;;
36355;SDS011;22384;54.302;18.596;2024-02-21T08:24:16;39.30;;;14.43;;
36355;SDS011;22384;54.302;18.596;2024-02-21T08:26:43;46.53;;;14.75;;
36355;SDS011;22384;54.302;18.596;2024-02-21T08:29:12;46.38;;;13.98;;
36355;SDS011;22384;54.302;18.596;2024-02-21T08:31:38;34.58;;;12.15;;
36355;SDS011;22384;54.302;18.596;2024-02-21T08:34:04;39.20;;;13.10;;
36355;SDS011;22384;54.302;18.596;2024-02-21T08:36:31;48.63;;;13.88;;
36355;SDS011;22384;54.302;18.596;2024-02-21T08:38:57;36.10;;;10.20;;
36355;SDS011;22384;54.302;18.596;2024-02-21T08:41:24;66.38;;;27.10;;
36355;SDS011;22384;54.302;18.596;2024-02-21T08:43:53;37.45;;;14.00;;
36355;SDS011;22384;54.302;18.596;2024-02-21T08:46:19;47.13;;;19.02;;
36355;SDS011;22384;54.302;18.596;2024-02-21T08:48:46;34.85;;;13.18;;
36355;SDS011;22384;54.302;18.596;2024-02-21T08:51:13;29.10;;;11.40;;
36355;SDS011;22384;54.302;18.596;2024-02-21T08:53:39;26.58;;;11.23;;
36355;SDS011;22384;54.302;18.596;2024-02-21T08:56:05;36.72;;;12.90;;
36355;SDS011;22384;54.302;18.596;2024-02-21T08:58:32;34.05;;;13.73;;
36355;SDS011;22384;54.302;18.596;2024-02-21T09:00:58;35.30;;;11.85;;
36355;SDS011;22384;54.302;18.596;2024-02-21T09:03:24;34.10;;;11.88;;
36355;SDS011;22384;54.302;18.596;2024-02-21T09:05:50;49.97;;;22.38;;
36355;SDS011;22384;54.302;18.596;2024-02-21T09:08:17;77.53;;;32.25;;
36355;SDS011;22384;54.302;18.596;2024-02-21T09:10:43;50.80;;;23.02;;
36355;SDS011;22384;54.302;18.596;2024-02-21T09:13:09;36.78;;;17.52;;
36355;SDS011;22384;54.302;18.596;2024-02-21T09:15:35;32.45;;;14.40;;
36355;SDS011;22384;54.302;18.596;2024-02-21T09:18:01;31.83;;;14.07;;
36355;SDS011;22384;54.302;18.596;2024-02-21T09:20:28;39.25;;;15.38;;
36355;SDS011;22384;54.302;18.596;2024-02-21T09:22:54;28.83;;;12.27;;
36355;SDS011;22384;54.302;18.596;2024-02-21T09:25:20;25.77;;;12.95;;
36355;SDS011;22384;54.302;18.596;2024-02-21T09:27:46;33.72;;;13.73;;
36355;SDS011;22384;54.302;18.596;2024-02-21T09:30:12;40.28;;;16.75;;
36355;SDS011;22384;54.302;18.596;2024-02-21T09:32:38;41.30;;;15.70;;
36355;SDS011;22384;54.302;18.596;2024-02-21T09:35:04;33.30;;;16.83;;
36355;SDS011;22384;54.302;18.596;2024-02-21T09:37:31;30.67;;;13.18;;
36355;SDS011;22384;54.302;18.596;2024-02-21T09:39:57;51.13;;;19.95;;
36355;SDS011;22384;54.302;18.596;2024-02-21T09:42:24;57.60;;;21.40;;
36355;SDS011;22384;54.302;18.596;2024-02-21T09:44:52;46.83;;;20.02;;
36355;SDS011;22384;54.302;18.596;2024-02-21T09:47:22;52.75;;;19.27;;
36355;SDS011;22384;54.302;18.596;2024-02-21T09:52:16;86.45;;;38.92;;
36355;SDS011;22384;54.302;18.596;2024-02-21T09:54:42;63.10;;;25.13;;
36355;SDS011;22384;54.302;18.596;2024-02-21T09:57:10;65.43;;;23.10;;
36355;SDS011;22384;54.302;18.596;2024-02-21T09:59:37;45.03;;;18.92;;
36355;SDS011;22384;54.302;18.596;2024-02-21T10:02:03;44.53;;;20.83;;
36355;SDS011;22384;54.302;18.596;2024-02-21T10:04:30;49.30;;;18.25;;
36355;SDS011;22384;54.302;18.596;2024-02-21T10:06:57;51.92;;;19.05;;
36355;SDS011;22384;54.302;18.596;2024-02-21T10:09:23;72.28;;;22.60;;
36355;SDS011;22384;54.302;18.596;2024-02-21T10:11:52;34.95;;;16.70;;
36355;SDS011;22384;54.302;18.596;2024-02-21T10:14:18;49.53;;;18.98;;
36355;SDS011;22384;54.302;18.596;2024-02-21T10:16:46;35.20;;;15.55;;
36355;SDS011;22384;54.302;18.596;2024-02-21T10:19:16;31.88;;;13.65;;
36355;SDS011;22384;54.302;18.596;2024-02-21T10:21:42;30.10;;;15.00;;
36355;SDS011;22384;54.302;18.596;2024-02-21T10:24:08;31.65;;;12.40;;
36355;SDS011;22384;54.302;18.596;2024-02-21T10:26:35;54.63;;;20.15;;
36355;SDS011;22384;54.302;18.596;2024-02-21T10:29:02;44.00;;;17.15;;
36355;SDS011;22384;54.302;18.596;2024-02-21T10:31:29;51.08;;;17.98;;
36355;SDS011;22384;54.302;18.596;2024-02-21T10:33:58;18.77;;;9.23;;
36355;SDS011;22384;54.302;18.596;2024-02-21T10:36:28;13.40;;;7.88;;
36355;SDS011;22384;54.302;18.596;2024-02-21T10:38:54;53.75;;;19.05;;
36355;SDS011;22384;54.302;18.596;2024-02-21T10:41:21;16.73;;;8.65;;
36355;SDS011;22384;54.302;18.596;2024-02-21T10:43:51;38.13;;;15.60;;
36355;SDS011;22384;54.302;18.596;2024-02-21T10:46:21;21.20;;;10.05;;
36355;SDS011;22384;54.302;18.596;2024-02-21T10:48:48;14.95;;;7.10;;
36355;SDS011;22384;54.302;18.596;2024-02-21T10:51:15;25.98;;;11.30;;
36355;SDS011;22384;54.302;18.596;2024-02-21T10:53:47;12.80;;;6.57;;
36355;SDS011;22384;54.302;18.596;2024-02-21T10:56:20;22.23;;;9.23;;
36355;SDS011;22384;54.302;18.596;2024-02-21T10:58:50;17.98;;;8.00;;
36355;SDS011;22384;54.302;18.596;2024-02-21T11:01:17;83.38;;;30.95;;
36355;SDS011;22384;54.302;18.596;2024-02-21T11:03:44;16.45;;;7.35;;
36355;SDS011;22384;54.302;18.596;2024-02-21T11:06:11;10.88;;;5.65;;
36355;SDS011;22384;54.302;18.596;2024-02-21T11:08:38;9.23;;;4.38;;
36355;SDS011;22384;54.302;18.596;2024-02-21T11:11:04;10.93;;;4.07;;
36355;SDS011;22384;54.302;18.596;2024-02-21T11:13:37;12.73;;;7.10;;
36355;SDS011;22384;54.302;18.596;2024-02-21T11:16:09;14.95;;;5.65;;
36355;SDS011;22384;54.302;18.596;2024-02-21T11:18:36;16.90;;;4.70;;
36355;SDS011;22384;54.302;18.596;2024-02-21T11:21:02;19.02;;;3.92;;
36355;SDS011;22384;54.302;18.596;2024-02-21T11:23:31;8.23;;;4.22;;
36355;SDS011;22384;54.302;18.596;2024-02-21T11:26:06;11.40;;;4.13;;
36355;SDS011;22384;54.302;18.596;2024-02-21T11:28:32;9.38;;;4.15;;
36355;SDS011;22384;54.302;18.596;2024-02-21T11:31:06;9.02;;;4.05;;
36355;SDS011;22384;54.302;18.596;2024-02-21T11:33:34;8.18;;;4.30;;
36355;SDS011;22384;54.302;18.596;2024-02-21T11:36:00;8.70;;;4.05;;
36355;SDS011;22384;54.302;18.596;2024-02-21T11:38:29;12.40;;;4.65;;
36355;SDS011;22384;54.302;18.596;2024-02-21T11:40:55;11.30;;;5.07;;
36355;SDS011;22384;54.302;18.596;2024-02-21T11:43:23;5.32;;;3.25;;
36355;SDS011;22384;54.302;18.596;2024-02-21T11:45:50;15.98;;;7.07;;
36355;SDS011;22384;54.302;18.596;2024-02-21T11:48:16;6.90;;;3.50;;
36355;SDS011;22384;54.302;18.596;2024-02-21T11:50:42;9.65;;;4.03;;
36355;SDS011;22384;54.302;18.596;2024-02-21T11:53:09;5.65;;;3.33;;
36355;SDS011;22384;54.302;18.596;2024-02-21T11:55:35;7.25;;;4.00;;
36355;SDS011;22384;54.302;18.596;2024-02-21T11:58:01;5.22;;;3.50;;
36355;SDS011;22384;54.302;18.596;2024-02-21T12:00:27;7.75;;;3.90;;
36355;SDS011;22384;54.302;18.596;2024-02-21T12:02:54;5.28;;;3.20;;
36355;SDS011;22384;54.302;18.596;2024-02-21T12:05:25;6.28;;;3.53;;
36355;SDS011;22384;54.302;18.596;2024-02-21T12:07:53;5.93;;;4.18;;
36355;SDS011;22384;54.302;18.596;2024-02-21T12:10:20;7.57;;;4.22;;
36355;SDS011;22384;54.302;18.596;2024-02-21T12:12:46;8.13;;;4.25;;
36355;SDS011;22384;54.302;18.596;2024-02-21T12:15:12;6.55;;;3.75;;
36355;SDS011;22384;54.302;18.596;2024-02-21T12:17:39;4.80;;;3.40;;
36355;SDS011;22384;54.302;18.596;2024-02-21T12:20:05;6.88;;;4.13;;
36355;SDS011;22384;54.302;18.596;2024-02-21T12:22:36;6.45;;;3.95;;
36355;SDS011;22384;54.302;18.596;2024-02-21T12:25:24;10.05;;;6.30;;
36355;SDS011;22384;54.302;18.596;2024-02-21T12:27:51;6.93;;;3.95;;
36355;SDS011;22384;54.302;18.596;2024-02-21T12:30:18;9.40;;;4.10;;
36355;SDS011;22384;54.302;18.596;2024-02-21T12:32:44;15.23;;;7.30;;
36355;SDS011;22384;54.302;18.596;2024-02-21T12:35:10;7.80;;;3.53;;
36355;SDS011;22384;54.302;18.596;2024-02-21T12:37:36;5.70;;;2.40;;
36355;SDS011;22384;54.302;18.596;2024-02-21T12:40:04;10.90;;;3.40;;
36355;SDS011;22384;54.302;18.596;2024-02-21T12:42:32;10.20;;;3.05;;
36355;SDS011;22384;54.302;18.596;2024-02-21T12:44:58;3.60;;;1.90;;
36355;SDS011;22384;54.302;18.596;2024-02-21T12:47:24;5.68;;;2.10;;
36355;SDS011;22384;54.302;18.596;2024-02-21T12:49:52;3.45;;;1.83;;
36355;SDS011;22384;54.302;18.596;2024-02-21T12:52:18;4.68;;;1.95;;
36355;SDS011;22384;54.302;18.596;2024-02-21T12:54:44;5.45;;;1.55;;
36355;SDS011;22384;54.302;18.596;2024-02-21T12:57:10;4.50;;;1.50;;
36355;SDS011;22384;54.302;18.596;2024-02-21T12:59:36;7.93;;;2.28;;
36355;SDS011;22384;54.302;18.596;2024-02-21T13:02:02;3.92;;;1.55;;
36355;SDS011;22384;54.302;18.596;2024-02-21T13:04:28;6.25;;;1.85;;
36355;SDS011;22384;54.302;18.596;2024-02-21T13:06:55;4.85;;;1.60;;
36355;SDS011;22384;54.302;18.596;2024-02-21T13:09:21;5.20;;;1.75;;
36355;SDS011;22384;54.302;18.596;2024-02-21T13:11:47;4.43;;;1.90;;
36355;SDS011;22384;54.302;18.596;2024-02-21T13:14:13;4.20;;;1.48;;
36355;SDS011;22384;54.302;18.596;2024-02-21T13:16:39;5.20;;;1.27;;
36355;SDS011;22384;54.302;18.596;2024-02-21T13:19:06;3.42;;;1.45;;
36355;SDS011;22384;54.302;18.596;2024-02-21T13:21:33;2.92;;;1.13;;
36355;SDS011;22384;54.302;18.596;2024-02-21T13:23:59;6.35;;;1.67;;
36355;SDS011;22384;54.302;18.596;2024-02-21T13:26:25;18.42;;;5.80;;
36355;SDS011;22384;54.302;18.596;2024-02-21T13:28:52;7.95;;;2.47;;
36355;SDS011;22384;54.302;18.596;2024-02-21T13:31:18;4.43;;;2.08;;
36355;SDS011;22384;54.302;18.596;2024-02-21T13:33:44;4.68;;;1.75;;
36355;SDS011;22384;54.302;18.596;2024-02-21T13:36:10;6.70;;;1.95;;
36355;SDS011;22384;54.302;18.596;2024-02-21T13:38:36;3.33;;;1.80;;
36355;SDS011;22384;54.302;18.596;2024-02-21T13:41:04;5.97;;;2.13;;
36355;SDS011;22384;54.302;18.596;2024-02-21T13:43:30;6.43;;;2.47;;
36355;SDS011;22384;54.302;18.596;2024-02-21T13:45:57;6.00;;;2.40;;
36355;SDS011;22384;54.302;18.596;2024-02-21T13:48:23;4.95;;;2.42;;
36355;SDS011;22384;54.302;18.596;2024-02-21T13:50:49;6.45;;;2.38;;
36355;SDS011;22384;54.302;18.596;2024-02-21T13:53:16;3.15;;;2.00;;
36355;SDS011;22384;54.302;18.596;2024-02-21T13:55:45;8.93;;;3.83;;
36355;SDS011;22384;54.302;18.596;2024-02-21T13:58:11;4.65;;;2.40;;
36355;SDS011;22384;54.302;18.596;2024-02-21T14:00:37;5.00;;;2.55;;
36355;SDS011;22384;54.302;18.596;2024-02-21T14:03:03;5.97;;;2.50;;
36355;SDS011;22384;54.302;18.596;2024-02-21T14:05:30;8.10;;;3.25;;
36355;SDS011;22384;54.302;18.596;2024-02-21T14:07:56;6.05;;;2.90;;
36355;SDS011;22384;54.302;18.596;2024-02-21T14:10:22;5.03;;;2.65;;
36355;SDS011;22384;54.302;18.596;2024-02-21T14:12:49;6.25;;;2.60;;
36355;SDS011;22384;54.302;18.596;2024-02-21T14:15:15;5.18;;;2.53;;
36355;SDS011;22384;54.302;18.596;2024-02-21T14:17:44;8.43;;;3.42;;
36355;SDS011;22384;54.302;18.596;2024-02-21T14:20:10;6.50;;;2.08;;
36355;SDS011;22384;54.302;18.596;2024-02-21T14:22:39;4.78;;;2.28;;
36355;SDS011;22384;54.302;18.596;2024-02-21T14:25:05;4.45;;;2.47;;
36355;SDS011;22384;54.302;18.596;2024-02-21T14:27:31;5.38;;;2.38;;
36355;SDS011;22384;54.302;18.596;2024-02-21T14:29:57;5.63;;;2.50;;